createdAt,value
2023-03-27T09:46:47.222Z,50
2023-03-27T09:51:56.298Z,49.8
2023-03-27T09:56:56.349Z,45.7
2023-03-27T10:02:03.044Z,50
2023-03-27T10:07:03.065Z,44.2
2023-03-27T10:12:56.271Z,44.1
2023-03-27T10:17:56.358Z,46.1
2023-03-27T10:23:03.652Z,45
2023-03-27T10:28:56.321Z,43.6
2023-03-27T10:34:03.809Z,52.3
2023-03-27T10:39:56.314Z,48.9
2023-03-27T10:45:03.450Z,48.4
2023-03-27T10:50:03.497Z,42.7
2023-03-27T10:55:56.331Z,38.8
2023-03-27T11:01:10.604Z,42.4
2023-03-27T11:06:56.246Z,39.7
2023-03-27T11:11:56.334Z,41.3
2023-03-27T11:17:03.397Z,42.9
2023-03-27T11:22:56.260Z,44.8
2023-03-27T11:27:56.281Z,48.1
2023-03-27T11:32:56.371Z,56.8
2023-03-27T11:37:56.321Z,59.9
2023-03-27T11:42:56.320Z,60.2
2023-03-27T11:47:56.428Z,55.9
2023-03-27T11:53:03.088Z,53.6
2023-03-27T11:58:03.359Z,47.2
2023-03-27T12:03:03.595Z,49.1
2023-03-27T12:08:03.800Z,52.3
2023-03-27T12:13:03.986Z,51
2023-03-27T12:19:03.906Z,50.4
2023-03-27T12:23:56.341Z,51.8
2023-03-27T12:29:03.190Z,62.7
2023-03-27T12:34:03.911Z,67
2023-03-27T12:39:56.267Z,67.7
2023-03-27T12:45:03.964Z,68.1
2023-03-27T12:50:56.670Z,71
2023-03-27T12:55:56.508Z,80.3
2023-03-27T13:01:03.093Z,92.2
2023-03-27T13:06:03.577Z,100
2023-03-27T13:11:56.367Z,90.4
2023-03-27T13:17:03.565Z,81.6
2023-03-27T13:22:56.252Z,82
2023-03-27T13:27:56.368Z,80.2
2023-03-27T13:33:03.502Z,75.6
2023-03-27T13:38:56.321Z,69.3
2023-03-27T13:44:03.880Z,68.4
2023-03-27T13:49:56.913Z,60.4
2023-03-27T13:55:03.036Z,60.6
2023-03-27T14:00:03.674Z,56.1
2023-03-27T14:05:57.206Z,60.7
2023-03-27T14:11:03.428Z,67
2023-03-27T14:16:03.617Z,79
2023-03-27T14:21:56.254Z,86.7
2023-03-27T14:26:56.345Z,87
2023-03-27T14:31:56.419Z,88.4
2023-03-27T14:37:03.046Z,84
2023-03-27T14:42:03.108Z,81.2
2023-03-27T14:47:03.935Z,76.9
2023-03-27T14:52:04.012Z,76.6
2023-03-27T14:57:56.320Z,72
2023-03-27T15:02:56.426Z,74.6
2023-03-27T15:07:56.365Z,79.2
2023-03-27T15:13:03.645Z,74.4
2023-03-27T15:18:56.400Z,76.1
2023-03-27T15:24:03.168Z,79.2
2023-03-27T15:29:03.118Z,83
2023-03-27T15:34:56.280Z,82
2023-03-27T15:39:56.299Z,83.5
2023-03-27T15:44:56.340Z,85.7
2023-03-27T15:49:56.354Z,84.6
2023-03-27T15:54:56.358Z,83.8
2023-03-27T15:59:56.368Z,82.2
2023-03-27T16:05:03.144Z,79.2
2023-03-27T16:10:05.327Z,77.9
2023-03-27T16:15:56.518Z,80.3
2023-03-27T16:20:56.264Z,79.7
2023-03-27T16:26:03.987Z,74.3
2023-03-27T16:31:56.392Z,72.1
2023-03-27T16:37:03.061Z,71.3
2023-03-27T16:42:03.092Z,74.1
2023-03-27T16:47:03.404Z,77
2023-03-27T16:52:03.790Z,83.8
2023-03-27T16:57:56.349Z,88.3
2023-03-27T17:03:03.145Z,90.6
2023-03-27T17:08:56.328Z,88.3
2023-03-27T17:14:03.770Z,86.1
2023-03-27T17:19:56.357Z,86.8
2023-03-27T17:25:03.345Z,88.9
2023-03-27T17:31:03.798Z,85.8
2023-03-27T17:36:56.259Z,86
2023-03-27T17:41:56.557Z,84.5
2023-03-27T17:46:56.388Z,82.5
2023-03-27T17:52:03.145Z,85.3
2023-03-27T17:57:03.166Z,82.5
2023-03-27T18:02:56.404Z,82.4
2023-03-27T18:07:56.437Z,85
2023-03-27T18:13:03.648Z,82.9
2023-03-27T18:18:56.339Z,85.5
2023-03-27T18:24:03.227Z,86.3
2023-03-27T18:29:05.401Z,86.7
2023-03-27T18:34:56.333Z,89.4
2023-03-27T18:39:56.315Z,86.4
2023-03-27T18:45:03.832Z,87.1
2023-03-27T18:50:56.504Z,89.5
2023-03-27T18:56:03.350Z,92.2
2023-03-27T19:01:03.516Z,92.5
2023-03-27T19:06:56.279Z,94.7
2023-03-27T19:11:56.345Z,96.2
2023-03-27T19:17:03.166Z,100
2023-03-27T19:22:03.804Z,100
2023-03-27T19:27:56.397Z,100
2023-03-27T19:32:56.351Z,100
2023-03-27T19:38:03.067Z,100
2023-03-27T19:43:03.761Z,100
2023-03-27T19:48:56.368Z,100
2023-03-27T19:53:56.394Z,100
2023-03-27T19:59:03.519Z,100
2023-03-27T20:04:03.838Z,100
2023-03-27T20:09:56.242Z,100
2023-03-27T20:15:09.959Z,100
2023-03-27T20:19:56.364Z,100
2023-03-27T20:25:03.109Z,100
2023-03-27T20:30:03.578Z,100
2023-03-27T20:35:12.972Z,100
2023-03-27T20:40:56.356Z,100
2023-03-27T20:46:03.144Z,100
2023-03-27T20:51:03.488Z,100
2023-03-27T20:56:56.363Z,100
2023-03-27T21:01:56.373Z,100
2023-03-27T21:07:03.143Z,100
2023-03-27T21:12:56.354Z,100
2023-03-27T21:18:03.154Z,100
2023-03-27T21:23:56.347Z,100
2023-03-27T21:29:03.118Z,100
2023-03-27T21:34:03.943Z,100
2023-03-27T21:39:56.281Z,100
2023-03-27T21:44:57.339Z,100
2023-03-27T21:50:03.124Z,100
2023-03-27T21:55:03.826Z,100
2023-03-27T22:00:56.341Z,100
2023-03-27T22:11:56.311Z,100
2023-03-27T22:17:03.118Z,100
2023-03-27T22:22:03.521Z,100
2023-03-27T22:27:03.669Z,100
2023-03-27T22:32:03.786Z,100
2023-03-27T22:37:56.250Z,100
2023-03-27T22:42:56.288Z,100
2023-03-27T22:48:03.672Z,100
2023-03-27T22:53:56.293Z,100
2023-03-27T22:59:03.112Z,100
2023-03-27T23:04:03.750Z,100
2023-03-27T23:09:56.245Z,100
2023-03-27T23:14:56.267Z,100
2023-03-27T23:19:56.277Z,100
2023-03-27T23:25:03.573Z,100
2023-03-27T23:30:56.236Z,100
2023-03-27T23:35:56.313Z,100
2023-03-27T23:41:03.032Z,100
2023-03-27T23:46:56.266Z,100
2023-03-27T23:52:03.090Z,100
2023-03-27T23:57:56.267Z,100
